sensor_id;sensor_type;location;lat;lon;timestamp;pressure;altitude;pressure_sealevel;temperature
24278;BMP280;12394;42.692;23.314;2023-06-10T00:00:10;94628.81;;;18.72
24278;BMP280;12394;42.692;23.314;2023-06-10T00:02:38;94629.44;;;18.67
24278;BMP280;12394;42.692;23.314;2023-06-10T00:05:04;94643.28;;;18.61
24278;BMP280;12394;42.692;23.314;2023-06-10T00:07:30;94631.81;;;18.55
24278;BMP280;12394;42.692;23.314;2023-06-10T00:09:55;94630.31;;;18.45
24278;BMP280;12394;42.692;23.314;2023-06-10T00:12:20;94627.50;;;18.40
24278;BMP280;12394;42.692;23.314;2023-06-10T00:14:46;94621.94;;;18.38
24278;BMP280;12394;42.692;23.314;2023-06-10T00:17:11;94625.50;;;18.35
24278;BMP280;12394;42.692;23.314;2023-06-10T00:19:37;94613.69;;;18.27
24278;BMP280;12394;42.692;23.314;2023-06-10T00:22:07;94614.75;;;18.20
24278;BMP280;12394;42.692;23.314;2023-06-10T00:24:32;94625.03;;;18.27
24278;BMP280;12394;42.692;23.314;2023-06-10T00:26:58;94627.41;;;18.25
24278;BMP280;12394;42.692;23.314;2023-06-10T00:29:23;94626.66;;;18.25
24278;BMP280;12394;42.692;23.314;2023-06-10T00:31:48;94622.97;;;18.22
24278;BMP280;12394;42.692;23.314;2023-06-10T00:34:14;94617.84;;;18.09
24278;BMP280;12394;42.692;23.314;2023-06-10T00:36:39;94615.19;;;18.28
24278;BMP280;12394;42.692;23.314;2023-06-10T00:39:05;94630.31;;;18.45
24278;BMP280;12394;42.692;23.314;2023-06-10T00:41:31;94621.63;;;18.45
24278;BMP280;12394;42.692;23.314;2023-06-10T00:43:57;94621.19;;;18.46
24278;BMP280;12394;42.692;23.314;2023-06-10T00:46:23;94630.47;;;18.51
24278;BMP280;12394;42.692;23.314;2023-06-10T00:48:50;94622.66;;;18.47
24278;BMP280;12394;42.692;23.314;2023-06-10T00:51:17;94626.34;;;18.50
24278;BMP280;12394;42.692;23.314;2023-06-10T00:53:43;94624.75;;;18.43
24278;BMP280;12394;42.692;23.314;2023-06-10T00:56:09;94611.22;;;18.23
24278;BMP280;12394;42.692;23.314;2023-06-10T00:58:35;94626.50;;;18.28
24278;BMP280;12394;42.692;23.314;2023-06-10T01:01:01;94638.44;;;18.23
24278;BMP280;12394;42.692;23.314;2023-06-10T01:03:27;94634.75;;;18.21
24278;BMP280;12394;42.692;23.314;2023-06-10T01:09:03;94636.78;;;18.26
24278;BMP280;12394;42.692;23.314;2023-06-10T01:14:42;94638.28;;;18.27
24278;BMP280;12394;42.692;23.314;2023-06-10T01:17:10;94651.50;;;18.27
24278;BMP280;12394;42.692;23.314;2023-06-10T01:19:36;94648.44;;;18.29
24278;BMP280;12394;42.692;23.314;2023-06-10T01:22:02;94635.94;;;18.29
24278;BMP280;12394;42.692;23.314;2023-06-10T01:24:28;94639.16;;;18.33
24278;BMP280;12394;42.692;23.314;2023-06-10T01:26:55;94629.00;;;18.32
24278;BMP280;12394;42.692;23.314;2023-06-10T01:29:31;94617.97;;;18.24
24278;BMP280;12394;42.692;23.314;2023-06-10T01:32:08;94639.31;;;18.30
24278;BMP280;12394;42.692;23.314;2023-06-10T01:34:39;94631.97;;;18.25
24278;BMP280;12394;42.692;23.314;2023-06-10T01:37:08;94641.66;;;18.28
24278;BMP280;12394;42.692;23.314;2023-06-10T01:39:35;94637.84;;;18.29
24278;BMP280;12394;42.692;23.314;2023-06-10T01:42:02;94623.53;;;18.35
24278;BMP280;12394;42.692;23.314;2023-06-10T01:44:28;94630.16;;;18.49
24278;BMP280;12394;42.692;23.314;2023-06-10T01:46:53;94607.06;;;18.40
24278;BMP280;12394;42.692;23.314;2023-06-10T01:49:19;94621.03;;;18.50
24278;BMP280;12394;42.692;23.314;2023-06-10T01:51:44;94626.06;;;18.57
24278;BMP280;12394;42.692;23.314;2023-06-10T01:54:09;94623.84;;;18.46
24278;BMP280;12394;42.692;23.314;2023-06-10T01:56:35;94620.28;;;18.49
24278;BMP280;12394;42.692;23.314;2023-06-10T01:59:00;94609.13;;;18.54
24278;BMP280;12394;42.692;23.314;2023-06-10T02:01:26;94614.13;;;18.61
24278;BMP280;12394;42.692;23.314;2023-06-10T02:03:51;94607.78;;;18.50
24278;BMP280;12394;42.692;23.314;2023-06-10T02:06:17;94588.81;;;18.60
24278;BMP280;12394;42.692;23.314;2023-06-10T02:08:42;94594.53;;;18.50
24278;BMP280;12394;42.692;23.314;2023-06-10T02:11:07;94611.94;;;18.60
24278;BMP280;12394;42.692;23.314;2023-06-10T02:13:33;94607.63;;;18.62
24278;BMP280;12394;42.692;23.314;2023-06-10T02:15:58;94608.38;;;18.63
24278;BMP280;12394;42.692;23.314;2023-06-10T02:18:25;94609.72;;;18.58
24278;BMP280;12394;42.692;23.314;2023-06-10T02:20:52;94602.66;;;18.55
24278;BMP280;12394;42.692;23.314;2023-06-10T02:23:17;94594.41;;;18.53
24278;BMP280;12394;42.692;23.314;2023-06-10T02:25:43;94594.56;;;18.59
24278;BMP280;12394;42.692;23.314;2023-06-10T02:28:08;94598.84;;;18.56
24278;BMP280;12394;42.692;23.314;2023-06-10T02:30:34;94596.59;;;18.64
24278;BMP280;12394;42.692;23.314;2023-06-10T02:32:59;94593.78;;;18.67
24278;BMP280;12394;42.692;23.314;2023-06-10T02:35:26;94592.34;;;18.67
24278;BMP280;12394;42.692;23.314;2023-06-10T02:37:51;94596.00;;;18.69
24278;BMP280;12394;42.692;23.314;2023-06-10T02:40:17;94599.66;;;18.72
24278;BMP280;12394;42.692;23.314;2023-06-10T02:42:42;94592.75;;;18.74
24278;BMP280;12394;42.692;23.314;2023-06-10T02:45:08;94581.41;;;18.74
24278;BMP280;12394;42.692;23.314;2023-06-10T02:47:33;94583.16;;;18.77
24278;BMP280;12394;42.692;23.314;2023-06-10T02:49:58;94572.59;;;18.67
24278;BMP280;12394;42.692;23.314;2023-06-10T02:52:24;94566.41;;;18.71
24278;BMP280;12394;42.692;23.314;2023-06-10T02:54:50;94581.38;;;18.83
24278;BMP280;12394;42.692;23.314;2023-06-10T02:57:15;94570.66;;;18.77
24278;BMP280;12394;42.692;23.314;2023-06-10T02:59:40;94581.06;;;18.90
24278;BMP280;12394;42.692;23.314;2023-06-10T03:02:06;94576.94;;;18.89
24278;BMP280;12394;42.692;23.314;2023-06-10T03:04:33;94565.03;;;18.84
24278;BMP280;12394;42.692;23.314;2023-06-10T03:06:58;94578.41;;;18.90
24278;BMP280;12394;42.692;23.314;2023-06-10T03:09:25;94588.13;;;18.93
24278;BMP280;12394;42.692;23.314;2023-06-10T03:11:51;94598.16;;;18.89
24278;BMP280;12394;42.692;23.314;2023-06-10T03:14:16;94584.78;;;18.83
24278;BMP280;12394;42.692;23.314;2023-06-10T03:16:42;94602.72;;;18.88
24278;BMP280;12394;42.692;23.314;2023-06-10T03:19:08;94601.09;;;18.91
24278;BMP280;12394;42.692;23.314;2023-06-10T03:21:36;94601.81;;;18.91
24278;BMP280;12394;42.692;23.314;2023-06-10T03:24:03;94611.53;;;18.94
24278;BMP280;12394;42.692;23.314;2023-06-10T03:26:28;94599.38;;;18.79
24278;BMP280;12394;42.692;23.314;2023-06-10T03:28:54;94598.63;;;18.78
24278;BMP280;12394;42.692;23.314;2023-06-10T03:31:19;94611.28;;;18.83
24278;BMP280;12394;42.692;23.314;2023-06-10T03:33:44;94620.13;;;18.80
24278;BMP280;12394;42.692;23.314;2023-06-10T03:36:10;94622.78;;;18.80
24278;BMP280;12394;42.692;23.314;2023-06-10T03:38:35;94622.78;;;18.80
24278;BMP280;12394;42.692;23.314;2023-06-10T03:41:02;94619.09;;;18.78
24278;BMP280;12394;42.692;23.314;2023-06-10T03:43:27;94612.63;;;18.79
24278;BMP280;12394;42.692;23.314;2023-06-10T03:45:53;94616.75;;;18.80
24278;BMP280;12394;42.692;23.314;2023-06-10T03:48:18;94602.78;;;18.70
24278;BMP280;12394;42.692;23.314;2023-06-10T03:50:44;94603.53;;;18.71
24278;BMP280;12394;42.692;23.314;2023-06-10T03:53:09;94605.41;;;18.79
24278;BMP280;12394;42.692;23.314;2023-06-10T03:55:35;94617.00;;;18.82
24278;BMP280;12394;42.692;23.314;2023-06-10T03:58:01;94612.31;;;18.77
24278;BMP280;12394;42.692;23.314;2023-06-10T04:00:27;94610.25;;;18.72
24278;BMP280;12394;42.692;23.314;2023-06-10T04:02:52;94613.38;;;18.70
24278;BMP280;12394;42.692;23.314;2023-06-10T04:05:19;94607.63;;;18.62
24278;BMP280;12394;42.692;23.314;2023-06-10T04:07:47;94598.84;;;18.56
24278;BMP280;12394;42.692;23.314;2023-06-10T04:10:14;94614.41;;;18.63
24278;BMP280;12394;42.692;23.314;2023-06-10T04:12:39;94612.50;;;18.64
24278;BMP280;12394;42.692;23.314;2023-06-10T04:15:05;94625.75;;;18.64
24278;BMP280;12394;42.692;23.314;2023-06-10T04:17:31;94622.66;;;18.65
24278;BMP280;12394;42.692;23.314;2023-06-10T04:19:57;94622.22;;;18.58
24278;BMP280;12394;42.692;23.314;2023-06-10T04:22:23;94622.09;;;18.61
24278;BMP280;12394;42.692;23.314;2023-06-10T04:24:49;94624.13;;;18.67
24278;BMP280;12394;42.692;23.314;2023-06-10T04:27:14;94630.44;;;18.69
24278;BMP280;12394;42.692;23.314;2023-06-10T04:29:40;94622.94;;;18.67
24278;BMP280;12394;42.692;23.314;2023-06-10T04:32:06;94624.41;;;18.69
24278;BMP280;12394;42.692;23.314;2023-06-10T04:34:33;94621.50;;;18.67
24278;BMP280;12394;42.692;23.314;2023-06-10T04:37:00;94624.72;;;18.71
24278;BMP280;12394;42.692;23.314;2023-06-10T04:39:25;94616.16;;;18.76
24278;BMP280;12394;42.692;23.314;2023-06-10T04:41:55;94626.59;;;18.79
24278;BMP280;12394;42.692;23.314;2023-06-10T04:44:41;94630.56;;;18.84
24278;BMP280;12394;42.692;23.314;2023-06-10T04:47:08;94624.34;;;18.96
24278;BMP280;12394;42.692;23.314;2023-06-10T04:49:37;94630.50;;;19.02
24278;BMP280;12394;42.692;23.314;2023-06-10T04:52:03;94623.25;;;19.12
24278;BMP280;12394;42.692;23.314;2023-06-10T04:54:30;94626.72;;;19.27
24278;BMP280;12394;42.692;23.314;2023-06-10T04:56:55;94631.22;;;19.44
24278;BMP280;12394;42.692;23.314;2023-06-10T04:59:21;94612.47;;;19.57
24278;BMP280;12394;42.692;23.314;2023-06-10T05:01:46;94616.63;;;19.73
24278;BMP280;12394;42.692;23.314;2023-06-10T05:04:14;94625.25;;;19.59
24278;BMP280;12394;42.692;23.314;2023-06-10T05:06:42;94608.16;;;19.60
24278;BMP280;12394;42.692;23.314;2023-06-10T05:09:10;94630.97;;;19.66
24278;BMP280;12394;42.692;23.314;2023-06-10T05:11:39;94629.72;;;19.52
24278;BMP280;12394;42.692;23.314;2023-06-10T05:14:05;94635.47;;;19.51
24278;BMP280;12394;42.692;23.314;2023-06-10T05:16:31;94621.91;;;19.49
24278;BMP280;12394;42.692;23.314;2023-06-10T05:18:57;94609.94;;;19.53
24278;BMP280;12394;42.692;23.314;2023-06-10T05:21:23;94624.81;;;19.60
24278;BMP280;12394;42.692;23.314;2023-06-10T05:23:50;94626.56;;;19.63
24278;BMP280;12394;42.692;23.314;2023-06-10T05:26:16;94616.84;;;19.60
24278;BMP280;12394;42.692;23.314;2023-06-10T05:29:01;94621.97;;;19.64
24278;BMP280;12394;42.692;23.314;2023-06-10T05:31:26;94621.94;;;19.73
24278;BMP280;12394;42.692;23.314;2023-06-10T05:33:53;94630.06;;;19.69
24278;BMP280;12394;42.692;23.314;2023-06-10T05:36:24;94628.72;;;19.74
24278;BMP280;12394;42.692;23.314;2023-06-10T05:38:51;94628.28;;;19.75
24278;BMP280;12394;42.692;23.314;2023-06-10T05:41:16;94630.31;;;19.80
24278;BMP280;12394;42.692;23.314;2023-06-10T05:43:42;94626.28;;;19.85
24278;BMP280;12394;42.692;23.314;2023-06-10T05:46:08;94629.59;;;19.94
24278;BMP280;12394;42.692;23.314;2023-06-10T05:48:33;94634.78;;;20.13
24278;BMP280;12394;42.692;23.314;2023-06-10T05:50:59;94639.97;;;20.31
24278;BMP280;12394;42.692;23.314;2023-06-10T05:53:24;94642.38;;;20.44
24278;BMP280;12394;42.692;23.314;2023-06-10T05:55:49;94622.56;;;20.45
24278;BMP280;12394;42.692;23.314;2023-06-10T05:58:15;94634.25;;;20.62
24278;BMP280;12394;42.692;23.314;2023-06-10T06:00:41;94628.94;;;20.62
24278;BMP280;12394;42.692;23.314;2023-06-10T06:03:07;94625.16;;;20.68
24278;BMP280;12394;42.692;23.314;2023-06-10T06:05:36;94617.28;;;20.74
24278;BMP280;12394;42.692;23.314;2023-06-10T06:08:03;94645.97;;;20.99
24278;BMP280;12394;42.692;23.314;2023-06-10T06:10:29;94634.69;;;21.04
24278;BMP280;12394;42.692;23.314;2023-06-10T06:12:55;94634.47;;;21.08
24278;BMP280;12394;42.692;23.314;2023-06-10T06:15:20;94632.38;;;21.12
24278;BMP280;12394;42.692;23.314;2023-06-10T06:17:46;94629.81;;;21.17
24278;BMP280;12394;42.692;23.314;2023-06-10T06:20:11;94637.69;;;21.26
24278;BMP280;12394;42.692;23.314;2023-06-10T06:22:37;94643.09;;;21.32
24278;BMP280;12394;42.692;23.314;2023-06-10T06:25:02;94639.59;;;21.41
24278;BMP280;12394;42.692;23.314;2023-06-10T06:27:28;94644.59;;;21.53
24278;BMP280;12394;42.692;23.314;2023-06-10T06:29:53;94648.06;;;21.59
24278;BMP280;12394;42.692;23.314;2023-06-10T06:32:19;94637.88;;;21.58
24278;BMP280;12394;42.692;23.314;2023-06-10T06:34:44;94645.69;;;21.61
24278;BMP280;12394;42.692;23.314;2023-06-10T06:37:10;94646.09;;;21.74
24278;BMP280;12394;42.692;23.314;2023-06-10T06:39:35;94647.59;;;21.76
24278;BMP280;12394;42.692;23.314;2023-06-10T06:42:00;94645.69;;;21.82
24278;BMP280;12394;42.692;23.314;2023-06-10T06:44:26;94639.59;;;21.76
24278;BMP280;12394;42.692;23.314;2023-06-10T06:46:51;94636.31;;;21.86
24278;BMP280;12394;42.692;23.314;2023-06-10T06:49:16;94636.53;;;21.83
24278;BMP280;12394;42.692;23.314;2023-06-10T06:51:43;94629.72;;;21.82
24278;BMP280;12394;42.692;23.314;2023-06-10T06:54:30;94626.47;;;21.92
24278;BMP280;12394;42.692;23.314;2023-06-10T06:56:56;94636.81;;;22.05
24278;BMP280;12394;42.692;23.314;2023-06-10T06:59:26;94636.75;;;22.20
24278;BMP280;12394;42.692;23.314;2023-06-10T07:02:16;94619.50;;;22.41
24278;BMP280;12394;42.692;23.314;2023-06-10T07:04:43;94628.03;;;22.45
24278;BMP280;12394;42.692;23.314;2023-06-10T07:07:09;94625.19;;;22.54
24278;BMP280;12394;42.692;23.314;2023-06-10T07:09:34;94613.78;;;22.48
24278;BMP280;12394;42.692;23.314;2023-06-10T07:12:00;94628.50;;;22.69
24278;BMP280;12394;42.692;23.314;2023-06-10T07:14:25;94634.16;;;22.77
24278;BMP280;12394;42.692;23.314;2023-06-10T07:16:51;94627.25;;;22.90
24278;BMP280;12394;42.692;23.314;2023-06-10T07:19:16;94613.44;;;22.92
24278;BMP280;12394;42.692;23.314;2023-06-10T07:21:42;94608.47;;;23.11
24278;BMP280;12394;42.692;23.314;2023-06-10T07:24:07;94618.34;;;23.36
24278;BMP280;12394;42.692;23.314;2023-06-10T07:26:39;94616.31;;;23.57
24278;BMP280;12394;42.692;23.314;2023-06-10T07:29:06;94619.56;;;23.77
24278;BMP280;12394;42.692;23.314;2023-06-10T07:31:32;94620.09;;;23.87
24278;BMP280;12394;42.692;23.314;2023-06-10T07:33:58;94617.34;;;24.35
24278;BMP280;12394;42.692;23.314;2023-06-10T07:36:28;94624.25;;;24.86
24278;BMP280;12394;42.692;23.314;2023-06-10T07:38:55;94624.25;;;25.14
24278;BMP280;12394;42.692;23.314;2023-06-10T07:41:23;94629.13;;;25.15
24278;BMP280;12394;42.692;23.314;2023-06-10T07:43:53;94615.50;;;25.19
24278;BMP280;12394;42.692;23.314;2023-06-10T07:46:23;94620.81;;;25.41
24278;BMP280;12394;42.692;23.314;2023-06-10T07:48:53;94610.69;;;25.97
24278;BMP280;12394;42.692;23.314;2023-06-10T07:51:21;94616.84;;;26.39
24278;BMP280;12394;42.692;23.314;2023-06-10T07:53:46;94614.72;;;26.26
24278;BMP280;12394;42.692;23.314;2023-06-10T07:56:12;94613.19;;;26.77
24278;BMP280;12394;42.692;23.314;2023-06-10T07:58:37;94616.16;;;27.04
24278;BMP280;12394;42.692;23.314;2023-06-10T08:01:03;94597.81;;;27.62
24278;BMP280;12394;42.692;23.314;2023-06-10T08:03:28;94610.66;;;27.93
24278;BMP280;12394;42.692;23.314;2023-06-10T08:05:53;94608.53;;;27.86
24278;BMP280;12394;42.692;23.314;2023-06-10T08:08:19;94615.50;;;28.19
24278;BMP280;12394;42.692;23.314;2023-06-10T08:10:44;94607.31;;;28.62
24278;BMP280;12394;42.692;23.314;2023-06-10T08:13:10;94579.25;;;28.89
24278;BMP280;12394;42.692;23.314;2023-06-10T08:15:35;94607.66;;;29.35
24278;BMP280;12394;42.692;23.314;2023-06-10T08:18:00;94608.63;;;29.51
24278;BMP280;12394;42.692;23.314;2023-06-10T08:20:26;94593.91;;;29.39
24278;BMP280;12394;42.692;23.314;2023-06-10T08:22:51;94596.69;;;29.99
24278;BMP280;12394;42.692;23.314;2023-06-10T08:25:17;94600.13;;;30.67
24278;BMP280;12394;42.692;23.314;2023-06-10T08:27:42;94588.53;;;31.42
24278;BMP280;12394;42.692;23.314;2023-06-10T08:30:08;94588.59;;;31.86
24278;BMP280;12394;42.692;23.314;2023-06-10T08:32:36;94558.69;;;32.42
24278;BMP280;12394;42.692;23.314;2023-06-10T08:35:01;94577.91;;;33.13
24278;BMP280;12394;42.692;23.314;2023-06-10T08:37:26;94578.78;;;33.45
24278;BMP280;12394;42.692;23.314;2023-06-10T08:39:52;94579.13;;;33.65
24278;BMP280;12394;42.692;23.314;2023-06-10T08:45:00;94576.72;;;34.64
24278;BMP280;12394;42.692;23.314;2023-06-10T08:47:29;94569.94;;;34.48
24278;BMP280;12394;42.692;23.314;2023-06-10T08:49:56;94565.75;;;35.46
24278;BMP280;12394;42.692;23.314;2023-06-10T08:52:26;94565.72;;;35.11
24278;BMP280;12394;42.692;23.314;2023-06-10T08:54:57;94566.38;;;34.70
24278;BMP280;12394;42.692;23.314;2023-06-10T08:57:25;94561.53;;;33.81
24278;BMP280;12394;42.692;23.314;2023-06-10T08:59:53;94544.75;;;34.07
24278;BMP280;12394;42.692;23.314;2023-06-10T09:02:19;94550.66;;;35.10
24278;BMP280;12394;42.692;23.314;2023-06-10T09:04:46;94553.03;;;35.48
24278;BMP280;12394;42.692;23.314;2023-06-10T09:07:12;94547.44;;;34.22
24278;BMP280;12394;42.692;23.314;2023-06-10T09:09:39;94549.91;;;32.80
24278;BMP280;12394;42.692;23.314;2023-06-10T09:12:07;94550.41;;;33.46
24278;BMP280;12394;42.692;23.314;2023-06-10T09:14:32;94540.41;;;35.01
24278;BMP280;12394;42.692;23.314;2023-06-10T09:16:58;94551.06;;;35.83
24278;BMP280;12394;42.692;23.314;2023-06-10T09:19:25;94550.97;;;34.40
24278;BMP280;12394;42.692;23.314;2023-06-10T09:21:52;94543.94;;;32.74
24278;BMP280;12394;42.692;23.314;2023-06-10T09:24:18;94539.88;;;32.29
24278;BMP280;12394;42.692;23.314;2023-06-10T09:26:43;94531.78;;;34.38
24278;BMP280;12394;42.692;23.314;2023-06-10T09:29:11;94539.88;;;34.78
24278;BMP280;12394;42.692;23.314;2023-06-10T09:31:38;94537.03;;;36.31
24278;BMP280;12394;42.692;23.314;2023-06-10T09:34:08;94545.06;;;38.05
24278;BMP280;12394;42.692;23.314;2023-06-10T09:36:35;94538.41;;;38.68
24278;BMP280;12394;42.692;23.314;2023-06-10T09:39:02;94541.38;;;38.82
24278;BMP280;12394;42.692;23.314;2023-06-10T09:41:35;94522.75;;;37.90
24278;BMP280;12394;42.692;23.314;2023-06-10T09:44:01;94530.31;;;36.32
24278;BMP280;12394;42.692;23.314;2023-06-10T09:46:34;94522.97;;;35.04
24278;BMP280;12394;42.692;23.314;2023-06-10T09:48:59;94515.84;;;36.75
24278;BMP280;12394;42.692;23.314;2023-06-10T09:51:25;94516.19;;;37.64
24278;BMP280;12394;42.692;23.314;2023-06-10T09:53:51;94518.75;;;38.00
24278;BMP280;12394;42.692;23.314;2023-06-10T09:56:17;94505.88;;;38.22
24278;BMP280;12394;42.692;23.314;2023-06-10T09:58:42;94509.53;;;37.86
24278;BMP280;12394;42.692;23.314;2023-06-10T10:01:12;94500.69;;;35.57
24278;BMP280;12394;42.692;23.314;2023-06-10T10:03:48;94509.47;;;36.27
24278;BMP280;12394;42.692;23.314;2023-06-10T10:06:15;94504.41;;;36.14
24278;BMP280;12394;42.692;23.314;2023-06-10T10:08:41;94505.41;;;37.66
24278;BMP280;12394;42.692;23.314;2023-06-10T10:11:07;94499.28;;;40.37
24278;BMP280;12394;42.692;23.314;2023-06-10T10:13:35;94496.63;;;40.39
24278;BMP280;12394;42.692;23.314;2023-06-10T10:16:07;94494.28;;;39.68
24278;BMP280;12394;42.692;23.314;2023-06-10T10:18:39;94495.84;;;40.04
24278;BMP280;12394;42.692;23.314;2023-06-10T10:21:11;94490.31;;;39.81
24278;BMP280;12394;42.692;23.314;2023-06-10T10:24:01;94491.97;;;39.74
24278;BMP280;12394;42.692;23.314;2023-06-10T10:26:31;94484.34;;;39.09
24278;BMP280;12394;42.692;23.314;2023-06-10T10:31:42;94469.28;;;38.06
24278;BMP280;12394;42.692;23.314;2023-06-10T10:34:13;94479.94;;;37.82
24278;BMP280;12394;42.692;23.314;2023-06-10T10:36:42;94476.06;;;37.66
24278;BMP280;12394;42.692;23.314;2023-06-10T10:39:08;94472.50;;;36.60
24278;BMP280;12394;42.692;23.314;2023-06-10T10:41:36;94474.81;;;35.83
24278;BMP280;12394;42.692;23.314;2023-06-10T10:44:03;94463.00;;;35.37
24278;BMP280;12394;42.692;23.314;2023-06-10T10:46:42;94459.94;;;34.56
24278;BMP280;12394;42.692;23.314;2023-06-10T10:49:12;94467.25;;;34.14
24278;BMP280;12394;42.692;23.314;2023-06-10T10:51:54;94454.81;;;33.23
24278;BMP280;12394;42.692;23.314;2023-06-10T10:54:30;94462.44;;;32.49
24278;BMP280;12394;42.692;23.314;2023-06-10T11:00:00;94457.59;;;31.73
24278;BMP280;12394;42.692;23.314;2023-06-10T11:02:45;94445.84;;;31.63
24278;BMP280;12394;42.692;23.314;2023-06-10T11:05:15;94442.84;;;31.39
24278;BMP280;12394;42.692;23.314;2023-06-10T11:07:55;94442.66;;;31.37
24278;BMP280;12394;42.692;23.314;2023-06-10T11:10:37;94438.81;;;31.60
24278;BMP280;12394;42.692;23.314;2023-06-10T11:13:13;94429.97;;;31.60
24278;BMP280;12394;42.692;23.314;2023-06-10T11:15:49;94427.00;;;31.43
24278;BMP280;12394;42.692;23.314;2023-06-10T11:18:26;94424.47;;;31.45
24278;BMP280;12394;42.692;23.314;2023-06-10T11:20:52;94421.41;;;31.05
24278;BMP280;12394;42.692;23.314;2023-06-10T11:31:24;94407.81;;;29.99
24278;BMP280;12394;42.692;23.314;2023-06-10T11:33:54;94415.47;;;29.74
24278;BMP280;12394;42.692;23.314;2023-06-10T11:36:20;94398.94;;;28.97
24278;BMP280;12394;42.692;23.314;2023-06-10T11:38:45;94403.19;;;28.79
24278;BMP280;12394;42.692;23.314;2023-06-10T11:41:11;94392.88;;;28.38
24278;BMP280;12394;42.692;23.314;2023-06-10T11:43:47;94398.19;;;28.57
24278;BMP280;12394;42.692;23.314;2023-06-10T11:46:44;94407.28;;;28.67
24278;BMP280;12394;42.692;23.314;2023-06-10T11:49:11;94410.59;;;28.60
24278;BMP280;12394;42.692;23.314;2023-06-10T11:51:41;94400.38;;;28.71
24278;BMP280;12394;42.692;23.314;2023-06-10T11:54:17;94401.50;;;28.76
24278;BMP280;12394;42.692;23.314;2023-06-10T11:56:43;94393.56;;;28.84
24278;BMP280;12394;42.692;23.314;2023-06-10T11:59:11;94392.56;;;29.07
24278;BMP280;12394;42.692;23.314;2023-06-10T12:01:43;94398.91;;;29.10
24278;BMP280;12394;42.692;23.314;2023-06-10T12:04:15;94395.28;;;29.34
24278;BMP280;12394;42.692;23.314;2023-06-10T12:07:01;94400.25;;;29.30
24278;BMP280;12394;42.692;23.314;2023-06-10T12:09:29;94394.00;;;29.35
24278;BMP280;12394;42.692;23.314;2023-06-10T12:12:05;94395.34;;;29.41
24278;BMP280;12394;42.692;23.314;2023-06-10T12:14:58;94396.88;;;29.50
24278;BMP280;12394;42.692;23.314;2023-06-10T12:17:51;94388.00;;;29.29
24278;BMP280;12394;42.692;23.314;2023-06-10T12:20:28;94387.56;;;29.51
24278;BMP280;12394;42.692;23.314;2023-06-10T12:22:59;94392.69;;;29.62
24278;BMP280;12394;42.692;23.314;2023-06-10T12:25:30;94389.28;;;29.62
24278;BMP280;12394;42.692;23.314;2023-06-10T12:27:58;94381.75;;;29.47
24278;BMP280;12394;42.692;23.314;2023-06-10T12:30:25;94390.03;;;29.49
24278;BMP280;12394;42.692;23.314;2023-06-10T12:32:52;94388.22;;;29.31
24278;BMP280;12394;42.692;23.314;2023-06-10T12:35:20;94377.44;;;29.17
24278;BMP280;12394;42.692;23.314;2023-06-10T12:40:31;94372.59;;;29.03
24278;BMP280;12394;42.692;23.314;2023-06-10T12:42:58;94370.31;;;28.94
24278;BMP280;12394;42.692;23.314;2023-06-10T12:45:31;94372.28;;;29.06
24278;BMP280;12394;42.692;23.314;2023-06-10T12:48:16;94367.75;;;28.88
24278;BMP280;12394;42.692;23.314;2023-06-10T12:50:44;94350.13;;;28.87
24278;BMP280;12394;42.692;23.314;2023-06-10T12:53:10;94371.44;;;28.98
24278;BMP280;12394;42.692;23.314;2023-06-10T12:55:37;94379.53;;;28.98
24278;BMP280;12394;42.692;23.314;2023-06-10T12:58:04;94378.72;;;28.90
24278;BMP280;12394;42.692;23.314;2023-06-10T13:00:31;94370.63;;;28.90
24278;BMP280;12394;42.692;23.314;2023-06-10T13:03:01;94377.09;;;28.74
24278;BMP280;12394;42.692;23.314;2023-06-10T13:05:27;94382.44;;;28.61
24278;BMP280;12394;42.692;23.314;2023-06-10T13:07:55;94377.34;;;28.57
24278;BMP280;12394;42.692;23.314;2023-06-10T13:10:21;94373.22;;;28.56
24278;BMP280;12394;42.692;23.314;2023-06-10T13:12:48;94372.56;;;28.24
24278;BMP280;12394;42.692;23.314;2023-06-10T13:15:13;94381.56;;;28.26
24278;BMP280;12394;42.692;23.314;2023-06-10T13:17:42;94390.69;;;28.37
24278;BMP280;12394;42.692;23.314;2023-06-10T13:20:08;94400.09;;;27.98
24278;BMP280;12394;42.692;23.314;2023-06-10T13:22:34;94407.63;;;27.49
24278;BMP280;12394;42.692;23.314;2023-06-10T13:25:05;94398.44;;;26.77
24278;BMP280;12394;42.692;23.314;2023-06-10T13:27:33;94416.88;;;26.38
24278;BMP280;12394;42.692;23.314;2023-06-10T13:29:59;94409.25;;;25.82
24278;BMP280;12394;42.692;23.314;2023-06-10T13:32:24;94405.84;;;25.35
24278;BMP280;12394;42.692;23.314;2023-06-10T13:34:51;94409.34;;;25.13
24278;BMP280;12394;42.692;23.314;2023-06-10T13:37:16;94408.19;;;24.98
24278;BMP280;12394;42.692;23.314;2023-06-10T13:39:43;94404.63;;;24.56
24278;BMP280;12394;42.692;23.314;2023-06-10T13:42:08;94412.69;;;24.23
24278;BMP280;12394;42.692;23.314;2023-06-10T13:44:34;94401.72;;;23.87
24278;BMP280;12394;42.692;23.314;2023-06-10T13:47:04;94397.94;;;23.24
24278;BMP280;12394;42.692;23.314;2023-06-10T13:49:30;94412.53;;;23.28
24278;BMP280;12394;42.692;23.314;2023-06-10T13:51:56;94410.78;;;23.20
24278;BMP280;12394;42.692;23.314;2023-06-10T13:54:41;94408.06;;;23.09
24278;BMP280;12394;42.692;23.314;2023-06-10T13:57:09;94409.53;;;23.10
24278;BMP280;12394;42.692;23.314;2023-06-10T13:59:35;94415.44;;;23.25
24278;BMP280;12394;42.692;23.314;2023-06-10T14:02:05;94411.78;;;23.28
24278;BMP280;12394;42.692;23.314;2023-06-10T14:04:31;94411.59;;;23.42
24278;BMP280;12394;42.692;23.314;2023-06-10T14:06:57;94417.44;;;23.46
24278;BMP280;12394;42.692;23.314;2023-06-10T14:09:23;94419.56;;;23.37
24278;BMP280;12394;42.692;23.314;2023-06-10T14:11:51;94421.28;;;23.40
24278;BMP280;12394;42.692;23.314;2023-06-10T14:14:17;94428.97;;;23.16
24278;BMP280;12394;42.692;23.314;2023-06-10T14:16:42;94425.09;;;23.17
24278;BMP280;12394;42.692;23.314;2023-06-10T14:19:17;94429.00;;;23.27
24278;BMP280;12394;42.692;23.314;2023-06-10T14:21:42;94428.28;;;23.32
24278;BMP280;12394;42.692;23.314;2023-06-10T14:24:07;94420.31;;;23.37